createdAt,value
2018-08-28T00:00:17.132Z,18.20
2018-08-28T00:02:52.125Z,18.20
2018-08-28T00:05:26.526Z,18.20
2018-08-28T00:08:00.994Z,18.10
2018-08-28T00:10:35.333Z,18.20
2018-08-28T00:13:09.680Z,18.10
2018-08-28T00:15:43.878Z,18.10
2018-08-28T00:18:19.242Z,18.00
2018-08-28T00:20:53.497Z,17.90
2018-08-28T00:23:27.814Z,18.00
2018-08-28T00:26:02.086Z,17.90
2018-08-28T00:28:37.174Z,17.90
2018-08-28T00:31:11.538Z,17.90
2018-08-28T00:33:45.733Z,18.00
2018-08-28T00:36:19.973Z,17.90
2018-08-28T00:38:54.375Z,17.90
2018-08-28T00:41:28.785Z,18.00
2018-08-28T00:44:03.209Z,18.00
2018-08-28T00:46:37.441Z,18.00
2018-08-28T00:49:11.840Z,18.00
2018-08-28T00:51:46.101Z,18.00
2018-08-28T00:54:20.409Z,18.10
2018-08-28T00:56:54.742Z,18.10
2018-08-28T00:59:29.072Z,18.00
2018-08-28T01:02:03.398Z,18.00
2018-08-28T01:04:37.627Z,18.00
2018-08-28T01:07:11.880Z,17.90
2018-08-28T01:09:46.217Z,18.00
2018-08-28T01:12:20.525Z,18.00
2018-08-28T01:14:54.901Z,18.10
2018-08-28T01:17:29.348Z,18.10
2018-08-28T01:20:04.301Z,18.00
2018-08-28T01:22:38.939Z,18.00
2018-08-28T01:25:13.202Z,17.90
2018-08-28T01:27:47.566Z,17.90
2018-08-28T01:30:27.268Z,17.90
2018-08-28T01:33:03.949Z,17.80
2018-08-28T01:35:38.174Z,17.70
2018-08-28T01:38:12.501Z,17.60
2018-08-28T01:40:46.917Z,17.50
2018-08-28T01:43:25.127Z,17.60
2018-08-28T01:45:59.619Z,17.60
2018-08-28T01:48:33.954Z,17.50
2018-08-28T01:51:08.354Z,17.60
2018-08-28T01:53:42.599Z,17.50
2018-08-28T01:56:16.972Z,17.30
2018-08-28T01:58:51.230Z,17.20
2018-08-28T02:01:25.573Z,17.20
2018-08-28T02:03:59.916Z,17.10
2018-08-28T02:06:34.159Z,17.00
2018-08-28T02:09:08.484Z,17.00
2018-08-28T02:11:42.847Z,16.90
2018-08-28T02:14:17.625Z,16.80
2018-08-28T02:16:52.200Z,16.80
2018-08-28T02:19:26.640Z,16.70
2018-08-28T02:22:01.007Z,16.50
2018-08-28T02:24:35.243Z,16.40
2018-08-28T02:27:10.838Z,16.30
2018-08-28T02:29:45.402Z,16.40
2018-08-28T02:32:19.772Z,16.40
2018-08-28T02:34:54.397Z,16.30
2018-08-28T02:37:28.913Z,16.20
2018-08-28T02:40:03.160Z,16.10
2018-08-28T02:42:37.367Z,16.10
2018-08-28T02:45:11.650Z,15.90
2018-08-28T02:47:45.969Z,15.70
2018-08-28T02:50:20.365Z,15.70
2018-08-28T02:52:54.666Z,15.80
2018-08-28T02:55:28.941Z,15.60
2018-08-28T02:58:03.186Z,15.50
2018-08-28T03:00:37.522Z,15.40
2018-08-28T03:03:11.775Z,15.30
2018-08-28T03:05:46.155Z,15.40
2018-08-28T03:08:20.561Z,15.40
2018-08-28T03:10:54.922Z,15.50
2018-08-28T03:13:29.217Z,15.30
2018-08-28T03:16:03.615Z,15.20
2018-08-28T03:18:37.897Z,15.10
2018-08-28T03:21:12.178Z,15.10
2018-08-28T03:23:46.760Z,15.20
2018-08-28T03:26:21.061Z,15.20
2018-08-28T03:28:55.426Z,15.20
2018-08-28T03:31:29.748Z,15.20
2018-08-28T03:34:04.037Z,15.20
2018-08-28T03:36:38.331Z,15.30
2018-08-28T03:39:12.642Z,15.30
2018-08-28T03:41:47.029Z,15.10
2018-08-28T03:44:21.582Z,15.20
2018-08-28T03:46:55.801Z,15.30
2018-08-28T03:49:30.299Z,15.40
2018-08-28T03:52:05.266Z,15.30
2018-08-28T03:54:40.045Z,15.30
2018-08-28T03:57:14.407Z,15.30
2018-08-28T03:59:48.630Z,15.40
2018-08-28T04:02:22.972Z,15.40
2018-08-28T04:04:57.331Z,15.40
2018-08-28T04:07:31.707Z,15.50
2018-08-28T04:10:06.198Z,15.50
2018-08-28T04:12:43.406Z,15.40
2018-08-28T04:15:17.671Z,15.40
2018-08-28T04:17:52.045Z,15.50
2018-08-28T04:20:26.284Z,15.50
2018-08-28T04:23:00.534Z,15.50
2018-08-28T04:25:34.819Z,15.50
2018-08-28T04:28:09.204Z,15.60
2018-08-28T04:30:43.649Z,15.40
2018-08-28T04:33:18.129Z,15.40
2018-08-28T04:35:53.261Z,15.40
2018-08-28T04:38:27.738Z,15.40
2018-08-28T04:41:02.098Z,15.30
2018-08-28T04:43:36.846Z,15.20
2018-08-28T04:46:11.194Z,15.20
2018-08-28T04:48:45.414Z,15.10
2018-08-28T04:51:19.851Z,15.20
2018-08-28T04:53:55.016Z,15.10
2018-08-28T04:56:29.382Z,15.20
2018-08-28T04:59:04.020Z,15.00
2018-08-28T05:01:38.282Z,14.90
2018-08-28T05:04:12.486Z,14.90
2018-08-28T05:06:46.831Z,14.70
2018-08-28T05:09:21.182Z,14.70
2018-08-28T05:11:55.643Z,14.70
2018-08-28T05:14:30.056Z,14.70
2018-08-28T05:17:04.595Z,14.70
2018-08-28T05:19:38.909Z,14.60
2018-08-28T05:22:13.210Z,14.60
2018-08-28T05:24:47.741Z,14.60
2018-08-28T05:27:22.359Z,14.70
2018-08-28T05:29:56.994Z,14.70
2018-08-28T05:32:31.377Z,14.60
2018-08-28T05:35:06.081Z,14.60
2018-08-28T05:37:40.459Z,14.50
2018-08-28T05:40:14.780Z,14.60
2018-08-28T05:42:48.988Z,14.60
2018-08-28T05:45:23.314Z,14.70
2018-08-28T05:47:57.619Z,14.70
2018-08-28T05:50:32.208Z,14.70
2018-08-28T05:53:06.578Z,14.80
2018-08-28T05:55:41.710Z,14.80
2018-08-28T05:58:16.085Z,14.80
2018-08-28T06:00:50.433Z,14.90
2018-08-28T06:03:24.765Z,15.00
2018-08-28T06:06:00.154Z,15.10
2018-08-28T06:08:34.556Z,15.20
2018-08-28T06:11:08.982Z,15.30
2018-08-28T06:13:43.957Z,15.50
2018-08-28T06:16:18.249Z,15.50
2018-08-28T06:18:52.566Z,15.60
2018-08-28T06:21:26.787Z,15.60
2018-08-28T06:24:01.096Z,15.70
2018-08-28T06:26:35.421Z,15.70
2018-08-28T06:29:09.895Z,15.80
2018-08-28T06:31:44.185Z,15.90
2018-08-28T06:34:18.561Z,15.90
2018-08-28T06:36:52.758Z,16.00
2018-08-28T06:39:27.051Z,16.10
2018-08-28T06:42:01.317Z,16.10
2018-08-28T06:44:36.110Z,16.10
2018-08-28T06:47:10.356Z,16.30
2018-08-28T06:49:44.766Z,16.40
2018-08-28T06:52:19.259Z,16.40
2018-08-28T06:54:53.595Z,16.50
2018-08-28T06:57:27.777Z,16.60
2018-08-28T07:00:02.070Z,16.70
2018-08-28T07:02:36.686Z,16.80
2018-08-28T07:05:10.916Z,16.80
2018-08-28T07:07:45.162Z,17.00
2018-08-28T07:10:19.767Z,17.00
2018-08-28T07:12:53.949Z,17.20
2018-08-28T07:15:28.194Z,17.30
2018-08-28T07:18:02.453Z,17.40
2018-08-28T07:20:36.913Z,17.50
2018-08-28T07:23:11.130Z,17.60
2018-08-28T07:25:45.850Z,17.70
2018-08-28T07:28:20.016Z,17.70
2018-08-28T07:30:54.356Z,17.90
2018-08-28T07:33:28.659Z,17.90
2018-08-28T07:36:03.266Z,18.00
2018-08-28T07:38:37.570Z,18.00
2018-08-28T07:41:11.899Z,18.10
2018-08-28T07:43:46.207Z,18.40
2018-08-28T07:46:20.519Z,18.60
2018-08-28T07:48:54.950Z,18.80
2018-08-28T07:51:29.304Z,19.10
2018-08-28T07:54:03.699Z,19.10
2018-08-28T07:56:38.062Z,19.40
2018-08-28T07:59:12.299Z,19.50
2018-08-28T08:01:46.514Z,19.60
2018-08-28T08:04:20.841Z,20.00
2018-08-28T08:06:55.156Z,20.20
2018-08-28T08:09:29.429Z,20.50
2018-08-28T08:12:03.729Z,20.60
2018-08-28T08:14:38.021Z,20.90
2018-08-28T08:17:12.417Z,20.80
2018-08-28T08:19:46.897Z,21.00
2018-08-28T08:22:21.266Z,21.30
2018-08-28T08:24:55.692Z,21.10
2018-08-28T08:27:30.030Z,21.10
2018-08-28T08:30:04.334Z,21.20
2018-08-28T08:32:38.559Z,21.80
2018-08-28T08:35:12.930Z,21.80
2018-08-28T08:37:47.247Z,21.50
2018-08-28T08:40:21.589Z,22.00
2018-08-28T08:42:55.909Z,21.90
2018-08-28T08:45:31.474Z,22.20
2018-08-28T08:48:05.739Z,22.50
2018-08-28T08:50:40.104Z,22.40
2018-08-28T08:53:14.436Z,22.80
2018-08-28T08:55:48.811Z,22.60
2018-08-28T08:58:23.279Z,22.80
2018-08-28T09:00:57.671Z,23.30
2018-08-28T09:03:31.999Z,24.20
2018-08-28T09:06:06.574Z,23.50
2018-08-28T09:08:41.110Z,22.90
2018-08-28T09:11:15.514Z,22.60
2018-08-28T09:13:49.998Z,22.70
2018-08-28T09:16:24.326Z,22.20
2018-08-28T09:18:58.658Z,22.80
2018-08-28T09:21:32.872Z,22.80
2018-08-28T09:24:07.088Z,22.80
2018-08-28T09:26:41.297Z,22.50
2018-08-28T09:29:15.666Z,22.80
2018-08-28T09:31:50.102Z,23.30
2018-08-28T09:34:24.512Z,23.20
2018-08-28T09:36:58.846Z,24.40
2018-08-28T09:39:33.282Z,24.70
2018-08-28T09:42:07.581Z,24.90
2018-08-28T09:44:41.971Z,24.80
2018-08-28T09:47:16.256Z,24.70
2018-08-28T09:49:50.803Z,24.80
2018-08-28T09:52:24.981Z,24.50
2018-08-28T09:54:59.399Z,24.40
2018-08-28T09:57:33.759Z,24.00
2018-08-28T10:00:12.944Z,24.00
2018-08-28T10:02:47.550Z,23.60
2018-08-28T10:05:21.846Z,23.50
2018-08-28T10:07:56.248Z,23.50
2018-08-28T10:10:30.549Z,23.80
2018-08-28T10:13:04.923Z,24.60
2018-08-28T10:15:39.250Z,24.50
2018-08-28T10:18:13.577Z,24.20
2018-08-28T10:20:47.960Z,24.30
2018-08-28T10:23:22.324Z,24.70
2018-08-28T10:25:56.573Z,24.30
2018-08-28T10:28:30.836Z,24.90
2018-08-28T10:31:05.149Z,25.20
2018-08-28T10:33:39.490Z,25.50
2018-08-28T10:36:13.756Z,26.60
2018-08-28T10:38:48.131Z,27.10
2018-08-28T10:41:22.488Z,26.90
2018-08-28T10:43:56.785Z,27.70
2018-08-28T10:46:31.166Z,27.90
2018-08-28T10:49:05.600Z,27.70
2018-08-28T10:51:39.905Z,28.10
2018-08-28T10:54:14.145Z,27.60
2018-08-28T10:56:48.611Z,26.80
2018-08-28T10:59:22.960Z,26.00
2018-08-28T11:01:57.795Z,26.40
2018-08-28T11:04:32.323Z,27.50
2018-08-28T11:07:09.001Z,27.90
2018-08-28T11:09:43.422Z,27.00
2018-08-28T11:12:17.755Z,27.50
2018-08-28T11:14:52.090Z,27.70
2018-08-28T11:17:26.605Z,28.20
2018-08-28T11:20:00.997Z,28.30
2018-08-28T11:22:35.270Z,27.70
2018-08-28T11:25:09.690Z,27.90
2018-08-28T11:27:44.080Z,28.30
2018-08-28T11:30:18.309Z,28.70
2018-08-28T11:32:52.649Z,29.40
2018-08-28T11:35:26.942Z,29.80
2018-08-28T11:38:04.146Z,29.60
2018-08-28T11:40:38.391Z,29.30
2018-08-28T11:43:12.732Z,28.60
2018-08-28T11:45:46.963Z,28.00
2018-08-28T11:48:21.183Z,27.50
2018-08-28T11:50:55.494Z,28.30
2018-08-28T11:53:29.743Z,28.50
2018-08-28T11:56:04.118Z,29.10
2018-08-28T11:58:38.406Z,29.00
2018-08-28T12:01:12.660Z,29.00
2018-08-28T12:03:47.116Z,28.90
2018-08-28T12:06:21.338Z,28.90
2018-08-28T12:08:56.225Z,29.20
2018-08-28T12:11:31.956Z,28.90
2018-08-28T12:14:06.305Z,29.00
2018-08-28T12:16:40.547Z,29.20
2018-08-28T12:19:14.871Z,30.00
2018-08-28T12:21:49.206Z,30.00
2018-08-28T12:24:23.525Z,29.70
2018-08-28T12:26:57.815Z,28.80
2018-08-28T12:29:32.049Z,28.50
2018-08-28T12:32:06.356Z,28.50
2018-08-28T12:34:40.727Z,28.20
2018-08-28T12:37:15.043Z,28.90
2018-08-28T12:39:49.812Z,29.60
2018-08-28T12:42:24.319Z,30.00
2018-08-28T12:44:58.826Z,30.30
2018-08-28T12:47:33.230Z,29.90
2018-08-28T12:50:08.420Z,29.80
2018-08-28T12:52:43.022Z,30.30
2018-08-28T12:55:17.376Z,30.70
2018-08-28T12:57:51.724Z,30.10
2018-08-28T13:00:26.031Z,30.40
2018-08-28T13:03:00.162Z,30.60
2018-08-28T13:05:34.483Z,30.20
2018-08-28T13:08:08.784Z,29.10
2018-08-28T13:10:43.146Z,29.50
2018-08-28T13:13:17.713Z,30.30
2018-08-28T13:15:52.133Z,30.70
2018-08-28T13:18:26.903Z,30.20
2018-08-28T13:21:01.163Z,30.50
2018-08-28T13:23:35.456Z,30.00
2018-08-28T13:26:10.162Z,30.30
2018-08-28T13:28:44.430Z,30.40
2018-08-28T13:31:18.749Z,30.30
2018-08-28T13:33:52.996Z,30.30
2018-08-28T13:36:27.287Z,29.00
2018-08-28T13:39:01.687Z,29.00
2018-08-28T13:41:36.151Z,29.10
2018-08-28T13:44:11.775Z,29.40
2018-08-28T13:46:46.203Z,30.20
2018-08-28T13:49:20.806Z,31.00
2018-08-28T13:51:55.268Z,31.40
2018-08-28T13:54:29.674Z,31.90
2018-08-28T13:57:03.811Z,32.00
2018-08-28T13:59:38.158Z,31.60
2018-08-28T14:02:12.614Z,31.10
2018-08-28T14:04:46.942Z,31.20
2018-08-28T14:07:21.190Z,31.80
2018-08-28T14:09:55.419Z,30.80
2018-08-28T14:12:29.871Z,29.40
2018-08-28T14:15:04.502Z,29.70
2018-08-28T14:17:38.608Z,30.60
2018-08-28T14:20:12.970Z,31.40
2018-08-28T14:22:47.277Z,31.60
2018-08-28T14:25:21.503Z,31.70
2018-08-28T14:27:55.723Z,32.10
2018-08-28T14:30:30.176Z,32.10
2018-08-28T14:33:04.511Z,31.90
2018-08-28T14:35:38.928Z,31.70
2018-08-28T14:38:13.097Z,31.50
2018-08-28T14:40:47.472Z,32.10
2018-08-28T14:43:21.782Z,32.50
2018-08-28T14:45:56.113Z,32.50
2018-08-28T14:48:30.496Z,32.80
2018-08-28T14:51:04.867Z,32.90
2018-08-28T14:53:39.111Z,32.70
2018-08-28T14:56:13.473Z,32.50
2018-08-28T14:58:47.755Z,32.10
2018-08-28T15:01:21.977Z,31.30
2018-08-28T15:03:56.323Z,30.90
2018-08-28T15:06:30.729Z,29.90
2018-08-28T15:09:06.950Z,29.60
2018-08-28T15:11:41.279Z,30.00
2018-08-28T15:14:15.519Z,30.60
2018-08-28T15:16:50.049Z,31.40
2018-08-28T15:19:24.372Z,32.10
2018-08-28T15:22:00.095Z,32.70
2018-08-28T15:24:34.497Z,32.60
2018-08-28T15:27:08.837Z,33.00
2018-08-28T15:29:43.083Z,33.20
2018-08-28T15:32:17.417Z,33.40
2018-08-28T15:34:51.848Z,33.40
2018-08-28T15:37:26.171Z,33.60
2018-08-28T15:40:00.678Z,33.20
2018-08-28T15:42:34.976Z,33.30
2018-08-28T15:45:09.200Z,32.70
2018-08-28T15:47:43.422Z,32.20
2018-08-28T15:50:18.966Z,32.10
2018-08-28T15:52:53.179Z,32.00
2018-08-28T15:55:27.392Z,32.30
2018-08-28T15:58:01.861Z,32.60
2018-08-28T16:00:36.200Z,32.60
2018-08-28T16:03:10.675Z,32.30
2018-08-28T16:05:44.900Z,32.10
2018-08-28T16:08:19.132Z,32.30
2018-08-28T16:10:53.362Z,32.20
2018-08-28T16:13:27.566Z,32.10
2018-08-28T16:16:01.923Z,32.20
2018-08-28T16:18:36.223Z,32.00
2018-08-28T16:21:10.456Z,31.90
2018-08-28T16:23:46.674Z,32.00
2018-08-28T16:26:20.945Z,31.80
2018-08-28T16:28:55.157Z,31.80
2018-08-28T16:31:29.434Z,31.80
2018-08-28T16:34:03.927Z,31.70
2018-08-28T16:36:38.394Z,31.60
2018-08-28T16:39:12.771Z,31.50
2018-08-28T16:41:47.234Z,31.40
2018-08-28T16:44:21.430Z,31.20
2018-08-28T16:46:55.918Z,31.30
2018-08-28T16:49:30.065Z,31.10
2018-08-28T16:52:04.459Z,30.80
2018-08-28T16:54:38.759Z,30.50
2018-08-28T16:57:13.029Z,30.10
2018-08-28T16:59:47.466Z,29.80
2018-08-28T17:02:21.749Z,29.70
2018-08-28T17:04:55.982Z,29.50
2018-08-28T17:07:30.337Z,29.30
2018-08-28T17:10:04.673Z,29.30
2018-08-28T17:12:39.114Z,29.10
2018-08-28T17:15:13.558Z,28.90
2018-08-28T17:17:48.942Z,28.90
2018-08-28T17:20:23.384Z,28.90
2018-08-28T17:22:57.629Z,28.70
2018-08-28T17:25:32.056Z,28.50
2018-08-28T17:28:06.563Z,28.30
2018-08-28T17:30:41.167Z,27.90
2018-08-28T17:33:15.480Z,27.90
2018-08-28T17:35:49.866Z,27.50
2018-08-28T17:38:24.251Z,27.10
2018-08-28T17:40:58.728Z,26.80
2018-08-28T17:43:33.206Z,26.50
2018-08-28T17:46:07.478Z,26.30
2018-08-28T17:48:41.804Z,25.90
2018-08-28T17:51:16.864Z,25.40
2018-08-28T17:53:51.241Z,25.20
2018-08-28T17:56:25.574Z,24.90
2018-08-28T17:58:59.787Z,24.60
2018-08-28T18:01:34.119Z,24.40
2018-08-28T18:04:08.368Z,24.10
2018-08-28T18:06:42.970Z,23.90
2018-08-28T18:09:17.288Z,23.80
2018-08-28T18:11:51.729Z,23.60
2018-08-28T18:14:26.105Z,23.40
2018-08-28T18:17:00.679Z,23.30
2018-08-28T18:19:34.882Z,23.20
2018-08-28T18:22:09.130Z,23.10
2018-08-28T18:24:43.327Z,23.10
2018-08-28T18:27:17.744Z,22.90
2018-08-28T18:29:51.973Z,22.80
2018-08-28T18:32:26.424Z,22.70
2018-08-28T18:35:01.222Z,22.60
2018-08-28T18:37:35.410Z,22.40
2018-08-28T18:40:09.670Z,22.30
2018-08-28T18:42:43.933Z,22.30
2018-08-28T18:45:18.303Z,22.10
2018-08-28T18:47:52.631Z,21.80
2018-08-28T18:50:27.497Z,21.50
2018-08-28T18:53:01.738Z,21.40
2018-08-28T18:55:35.975Z,21.30
2018-08-28T18:58:10.474Z,21.50
2018-08-28T19:00:44.753Z,21.30
2018-08-28T19:03:19.047Z,21.20
2018-08-28T19:05:53.277Z,20.90
2018-08-28T19:08:27.484Z,20.70
2018-08-28T19:11:01.754Z,20.60
2018-08-28T19:13:35.982Z,20.40
2018-08-28T19:16:10.188Z,20.40
2018-08-28T19:18:44.472Z,20.40
2018-08-28T19:21:18.956Z,20.30
2018-08-28T19:23:53.198Z,20.30
2018-08-28T19:26:28.029Z,20.20
2018-08-28T19:29:02.248Z,20.10
2018-08-28T19:31:36.619Z,20.10
2018-08-28T19:34:11.066Z,20.00
2018-08-28T19:36:45.303Z,19.90
2018-08-28T19:39:19.640Z,19.80
2018-08-28T19:41:54.008Z,19.90
2018-08-28T19:44:28.292Z,19.90
2018-08-28T19:47:02.659Z,19.90
2018-08-28T19:49:36.982Z,19.90
2018-08-28T19:52:11.919Z,19.80
2018-08-28T19:54:46.455Z,19.70
2018-08-28T19:57:21.121Z,19.70
2018-08-28T19:59:55.806Z,19.70
2018-08-28T20:02:30.297Z,19.70
2018-08-28T20:05:04.692Z,19.80
2018-08-28T20:07:38.970Z,19.70
2018-08-28T20:10:13.296Z,19.60
2018-08-28T20:12:47.647Z,19.50
2018-08-28T20:15:22.050Z,19.70
2018-08-28T20:17:56.449Z,19.60
2018-08-28T20:20:30.937Z,19.60
2018-08-28T20:23:05.378Z,19.40
2018-08-28T20:25:39.687Z,19.20
2018-08-28T20:28:13.979Z,19.20
2018-08-28T20:30:48.371Z,18.90
2018-08-28T20:33:22.590Z,18.80
2018-08-28T20:35:56.919Z,18.70
2018-08-28T20:38:31.305Z,18.50
2018-08-28T20:41:06.114Z,18.40
2018-08-28T20:43:40.393Z,18.60
2018-08-28T20:46:14.857Z,18.60
2018-08-28T20:48:49.372Z,18.60
2018-08-28T20:51:23.678Z,18.70
2018-08-28T20:53:58.151Z,18.60
2018-08-28T20:56:32.564Z,18.30
2018-08-28T20:59:07.100Z,18.20
2018-08-28T21:01:41.521Z,18.20
2018-08-28T21:04:16.038Z,18.20
2018-08-28T21:06:50.537Z,18.20
2018-08-28T21:09:25.016Z,18.10
2018-08-28T21:11:59.359Z,18.10
2018-08-28T21:14:33.593Z,18.10
2018-08-28T21:17:07.970Z,18.10
2018-08-28T21:19:42.174Z,18.10
2018-08-28T21:22:16.466Z,18.10
2018-08-28T21:24:50.678Z,18.00
2018-08-28T21:27:25.230Z,18.10
2018-08-28T21:29:59.476Z,17.90
2018-08-28T21:32:33.742Z,17.80
2018-08-28T21:35:08.078Z,17.70
2018-08-28T21:37:42.695Z,17.70
2018-08-28T21:40:16.895Z,17.70
2018-08-28T21:42:51.201Z,17.60
2018-08-28T21:45:25.486Z,17.60
2018-08-28T21:47:59.664Z,17.60
2018-08-28T21:50:33.990Z,17.70
2018-08-28T21:53:08.284Z,17.80
2018-08-28T21:55:42.626Z,17.80
2018-08-28T21:58:16.959Z,17.90
2018-08-28T22:00:56.668Z,17.90
2018-08-28T22:03:31.187Z,17.80
2018-08-28T22:06:06.021Z,17.70
2018-08-28T22:08:40.409Z,17.50
2018-08-28T22:11:14.728Z,17.40
2018-08-28T22:13:49.015Z,17.40
2018-08-28T22:16:23.297Z,17.20
2018-08-28T22:18:58.183Z,17.20
2018-08-28T22:21:32.670Z,17.30
2018-08-28T22:24:06.983Z,17.30
2018-08-28T22:26:41.360Z,17.40
2018-08-28T22:29:15.674Z,17.40
2018-08-28T22:31:49.934Z,17.40
2018-08-28T22:34:24.244Z,17.20
2018-08-28T22:36:58.687Z,17.10
2018-08-28T22:39:33.108Z,17.10
2018-08-28T22:42:07.452Z,17.10
2018-08-28T22:44:41.882Z,17.10
2018-08-28T22:47:16.131Z,17.20
2018-08-28T22:49:50.483Z,17.20
2018-08-28T22:52:25.124Z,17.20
2018-08-28T22:55:00.535Z,17.00
2018-08-28T22:57:35.219Z,16.80
2018-08-28T23:00:09.394Z,16.90
2018-08-28T23:02:44.104Z,16.80
2018-08-28T23:05:19.019Z,16.70
2018-08-28T23:07:53.801Z,16.70
2018-08-28T23:10:28.100Z,16.70
2018-08-28T23:13:02.682Z,16.60
2018-08-28T23:15:37.239Z,16.50
2018-08-28T23:18:12.199Z,16.50
2018-08-28T23:20:46.838Z,16.40
2018-08-28T23:23:21.791Z,16.40
2018-08-28T23:25:56.672Z,16.50
2018-08-28T23:28:31.503Z,16.50
2018-08-28T23:31:06.466Z,16.40
2018-08-28T23:33:40.964Z,16.40
2018-08-28T23:36:15.417Z,16.40
2018-08-28T23:38:50.110Z,16.50
2018-08-28T23:41:26.447Z,16.50
2018-08-28T23:44:00.723Z,16.40
2018-08-28T23:46:35.205Z,16.40
2018-08-28T23:49:09.570Z,16.40
2018-08-28T23:51:43.961Z,16.40
2018-08-28T23:54:18.316Z,16.30
2018-08-28T23:56:52.582Z,16.30
2018-08-28T23:59:27.028Z,16.10
